KOGB/OGB METAR and TAF weather

Enter ICAO airport designator
Station Type Date Time Source
KOGB METAR 2021/08/01 16:53 UTC NOAA

KOGB 011653Z AUTO 25013G17KT 10SM CLR 33/24 A2990 RMK AO2 SLP122 T03330244


Station Type Date Time Source
KOGB Decoded METAR 2021/08/01 16:53 UTC NOAA

ORANGEBURG MUNICIPAL AIRPORT, SC, United States (KOGB) 33-28N 080-51W 59M
Aug 01, 2021 - 12:53 PM EDT / 2021.08.01 1653 UTC
Wind: from the WSW (250 degrees) at 15 MPH (13 KT) gusting to 20 MPH (17 KT):0
Visibility: 10 mile(s):0
Sky conditions: clear
Temperature: 91.9 F (33.3 C)
Heat index: 103.8 F (39.9 C):1
Dew Point: 75.9 F (24.4 C)
Relative Humidity: 59%
Pressure (altimeter): 29.9 in. Hg (1012 hPa)
ob: KOGB 011653Z AUTO 25013G17KT 10SM CLR 33/24 A2990 RMK AO2 SLP122 T03330244
cycle: 17

Station Type Date Time Source
KOGB TAF 2021/08/01 18:27 UTC NOAA

TAF KOGB 011725Z 0118/0218 30015G20KT P6SM SCT040 BKN250
FM012000 30015G20KT P6SM VCSH SCT040 BKN250
FM020200 VRB03KT P6SM BKN250

Example: see airport list